GB-0286 weather

Longside Airfield
Peterhead, Scotland, United Kingdom

Public forecast

Using degrees Celsius for public forecast. Weather courtesy of forecast.io.

Closest aviation weather report (METAR) to Longside Airfield

Closest report is Aberdeen Dyce Airport, 21.8 nm (40.3 km) SSW. Retrieved 2020/05/30 07:50 UTC (14 minutes ago):

EGPD 300750Z AUTO 16011KT 9999 NCD 14/09 Q1028 NOSIG

Closest aviation forecast (TAF) to Longside Airfield

Closest forecast is Aberdeen Dyce Airport, 21.8 nm (40.3 km) SSW. Retrieved 2020/05/30 06:00 UTC (2 hours ago):

TAF EGAA 300455Z 3006/3106 13009KT CAVOK TAF EGPD 300454Z 3006/3106 16009KT CAVOK TEMPO 3100/3106 3000 MIFG BR PROB30 3102/3106 0300 FG BKN000